Main page
METAR-TAF:

METAR-TAF

Airports :

Casement Aerodrome

Dublin, Ireland

latitude: 53-18-06N, longitude: 6-27-04W, elevation: 97 m

Current weather observation

The report was made 1 hour and 14 minutes ago, at 21:00 UTC
Wind 8 kt from the West
Temperature 14°C
Humidity 94%
Pressure 1009 hPa
Visibility 10 km or more
Few clouds at a height of 1000 ft
Few clouds at a height of 1800 ft, Cumulonimbus.
Broken clouds at a height of 2800 ft

METAR: EIME 302100Z 26008KT 9999 FEW010 FEW018CB BKN028 14/13 Q1009

Time: 23:14 (22:14 UTC)

Forecast

The report was made 2 hours and 14 minutes ago, at 20:00 UTC
Forecast valid from 30 at 21 UTC to 31 at 06 UTC
Wind 8 kt from the West/Northwest
Visibility 10 km or more
Few clouds at a height of 1000 ft
Scattered clouds at a height of 2500 ft
Probability 30% :
Temporary
from 31 at 00 UTC to 31 at 06 UTC
Visibility: 3000 m
Broken clouds at a height of 700 ft
mist

TAF: EIME 302000Z 3021/3106 29008KT 9999 FEW010 SCT025 PROB30 TEMPO 3100/3106 3000 BR BKN007

Weather observations and forecasts of more than 4000 airports (METAR and TAF reports).

The available stations are represented by yellow and red dots on the map.

Hover mouse over dot to see the name of the station.

Then click to see weather observations and forecasts.

To change the map : click on the green buttons with a black cross to zoom in, on the green button with a dash to zoom out, or on the green arrows for adjacent maps.


METAR-TAF: